Aida — SBLI — position and weather

sailwx.info

Track history (hours):
 
Tides and Currents Weather Stations Pressure Air Temp Water Temp Dewpoint Dewpoint Depression Visibility Wind Speed Wind Dir Waves Ship Positions

Aida

Last reported at 2016-Mar-30 16:21 UTC. Time now 2016-Sep-29 04:55 UTC.
Position N 40°42' W 074°08'.
Warning: this ship's position is months out of date.

Length 199.1 m; beam 32.3 m; draft 9.5 m.

Type: Cargo ship. MMSI: 266211000.

Date/timePositionNaut miles runAvg speedWind from/ knotsBaromVisibWave heightAir tempDewpointWater temp
2016-Mar-30 16:21N 40°42' W 074°08'0 0.0
2016-Mar-30 15:33N 40°42' W 074°08'0 0.0
2016-Mar-30 14:33N 40°42' W 074°08'0 0.0
2016-Mar-30 13:33N 40°42' W 074°08'0 0.0
2016-Mar-30 12:33N 40°42' W 074°08'0 0.0
2016-Mar-30 11:33N 40°42' W 074°08'0 0.0
2016-Mar-30 10:33N 40°42' W 074°08'0 0.0
2016-Mar-30 09:33N 40°42' W 074°08'0 0.0
2016-Mar-30 08:24N 40°42' W 074°08'0 0.0
2016-Mar-30 07:33N 40°42' W 074°08'0 0.0
2016-Mar-30 06:33N 40°42' W 074°08'0 0.0
2016-Mar-30 05:33N 40°42' W 074°08'0 0.0
2016-Mar-30 04:33N 40°42' W 074°08'0 0.0
2016-Mar-30 03:33N 40°42' W 074°08'0 0.0
2016-Mar-30 02:33N 40°42' W 074°08'0 0.0
2016-Mar-30 01:33N 40°42' W 074°08'0 0.0
2016-Mar-30 00:33N 40°42' W 074°08'0 0.0
2016-Mar-29 23:33N 40°42' W 074°08'0 0.0
2016-Mar-29 22:33N 40°42' W 074°08'0 0.0
2016-Mar-29 21:33N 40°42' W 074°08'0 0.0
2016-Mar-29 20:33N 40°42' W 074°08'0 0.0
2016-Mar-29 19:30N 40°42' W 074°08'0 0.0
2016-Mar-29 18:33N 40°42' W 074°08'0 0.0
2016-Mar-29 17:33N 40°42' W 074°08'0 0.0
2016-Mar-29 16:33N 40°42' W 074°08'0 0.0
2016-Mar-29 15:33N 40°42' W 074°08'0 0.0
2016-Mar-29 14:33N 40°42' W 074°08'0 0.0
2016-Mar-29 13:27N 40°42' W 074°08'0 0.0
2016-Mar-29 12:33N 40°42' W 074°08'0 0.0
2016-Mar-29 11:33N 40°42' W 074°08'0 0.0
2016-Mar-29 10:33N 40°42' W 074°08'0 0.0
2016-Mar-29 09:33N 40°42' W 074°08'0 0.0
2016-Mar-29 08:33N 40°42' W 074°08'0 0.0
2016-Mar-29 07:33N 40°42' W 074°08'0 0.0
2016-Mar-29 06:33N 40°42' W 074°08'0 0.0
2016-Mar-29 05:33N 40°42' W 074°08'0 0.0
2016-Mar-29 04:33N 40°42' W 074°08'0 0.0
2016-Mar-29 03:33N 40°42' W 074°08'0 0.0
2016-Mar-29 02:33N 40°42' W 074°08'0 0.0
2016-Mar-29 01:33N 40°42' W 074°08'0 0.0
2016-Mar-29 00:33N 40°42' W 074°08'0 0.0
2016-Mar-28 23:33N 40°42' W 074°08'0 0.1
2016-Mar-28 22:33N 40°41' W 074°08'0 0.0
2016-Mar-28 21:33N 40°41' W 074°08'0 0.0
2016-Mar-28 20:33N 40°41' W 074°08'0 0.0
2016-Mar-28 19:33N 40°41' W 074°08'0 0.0
2016-Mar-28 18:33N 40°41' W 074°08'0 0.0
2016-Mar-28 17:33N 40°41' W 074°08'0 0.0
2016-Mar-28 16:33N 40°41' W 074°08'0 0.0
2016-Mar-28 15:33N 40°41' W 074°08'0 0.0
2016-Mar-28 14:33N 40°41' W 074°08'0 0.0
2016-Mar-28 13:33N 40°41' W 074°08'0 0.0
2016-Mar-28 12:33N 40°41' W 074°08'0 0.0
2016-Mar-28 11:33N 40°41' W 074°08'2 2.1
2016-Mar-28 10:33N 40°39' W 074°09'6 5.5
2016-Mar-28 09:33N 40°36' W 074°03'1010.1
2016-Mar-28 08:33N 40°29' W 073°54'7 6.7
2016-Mar-28 07:33N 40°24' W 073°48'8 8.2
2016-Mar-28 06:32N 40°16' W 073°46'8 8.1
2016-Mar-28 05:32N 40°08' W 073°45'10 7.9
2016-Mar-28 04:15N 39°58' W 073°43'16 8.4
2016-Mar-28 02:23N 39°42' W 073°40'  
2016-Mar-24 10:09N 26°21' W 079°28'1119.1
2016-Mar-24 09:33N 26°09' W 079°30'1919.5
2016-Mar-24 08:33N 25°50' W 079°34'  
Track history (hours):
 
Tides and Currents Weather Stations Pressure Air Temp Water Temp Dewpoint Dewpoint Depression Visibility Wind Speed Wind Dir Waves Ship Positions

Aida

Last reported at 2016-Mar-30 16:21 UTC. Time now 2016-Sep-29 04:55 UTC.
Position N 40°42' W 074°08'.
Warning: this ship's position is months out of date.

Length 199.1 m; beam 32.3 m; draft 9.5 m.

Type: Cargo ship. MMSI: 266211000.

Date/timePositionNaut miles runAvg speedWind from/ knotsBaromVisibWave heightAir tempDewpointWater temp
2016-Mar-30 16:21N 40°42' W 074°08'0 0.0
2016-Mar-30 15:33N 40°42' W 074°08'0 0.0
2016-Mar-30 14:33N 40°42' W 074°08'0 0.0
2016-Mar-30 13:33N 40°42' W 074°08'0 0.0
2016-Mar-30 12:33N 40°42' W 074°08'0 0.0
2016-Mar-30 11:33N 40°42' W 074°08'0 0.0
2016-Mar-30 10:33N 40°42' W 074°08'0 0.0
2016-Mar-30 09:33N 40°42' W 074°08'0 0.0
2016-Mar-30 08:24N 40°42' W 074°08'0 0.0
2016-Mar-30 07:33N 40°42' W 074°08'0 0.0
2016-Mar-30 06:33N 40°42' W 074°08'0 0.0
2016-Mar-30 05:33N 40°42' W 074°08'0 0.0
2016-Mar-30 04:33N 40°42' W 074°08'0 0.0
2016-Mar-30 03:33N 40°42' W 074°08'0 0.0
2016-Mar-30 02:33N 40°42' W 074°08'0 0.0
2016-Mar-30 01:33N 40°42' W 074°08'0 0.0
2016-Mar-30 00:33N 40°42' W 074°08'0 0.0
2016-Mar-29 23:33N 40°42' W 074°08'0 0.0
2016-Mar-29 22:33N 40°42' W 074°08'0 0.0
2016-Mar-29 21:33N 40°42' W 074°08'0 0.0
2016-Mar-29 20:33N 40°42' W 074°08'0 0.0
2016-Mar-29 19:30N 40°42' W 074°08'0 0.0
2016-Mar-29 18:33N 40°42' W 074°08'0 0.0
2016-Mar-29 17:33N 40°42' W 074°08'0 0.0
2016-Mar-29 16:33N 40°42' W 074°08'0 0.0
2016-Mar-29 15:33N 40°42' W 074°08'0 0.0
2016-Mar-29 14:33N 40°42' W 074°08'0 0.0
2016-Mar-29 13:27N 40°42' W 074°08'0 0.0
2016-Mar-29 12:33N 40°42' W 074°08'0 0.0
2016-Mar-29 11:33N 40°42' W 074°08'0 0.0
2016-Mar-29 10:33N 40°42' W 074°08'0 0.0
2016-Mar-29 09:33N 40°42' W 074°08'0 0.0
2016-Mar-29 08:33N 40°42' W 074°08'0 0.0
2016-Mar-29 07:33N 40°42' W 074°08'0 0.0
2016-Mar-29 06:33N 40°42' W 074°08'0 0.0
2016-Mar-29 05:33N 40°42' W 074°08'0 0.0
2016-Mar-29 04:33N 40°42' W 074°08'0 0.0
2016-Mar-29 03:33N 40°42' W 074°08'0 0.0
2016-Mar-29 02:33N 40°42' W 074°08'0 0.0
2016-Mar-29 01:33N 40°42' W 074°08'0 0.0
2016-Mar-29 00:33N 40°42' W 074°08'0 0.0
2016-Mar-28 23:33N 40°42' W 074°08'0 0.1
2016-Mar-28 22:33N 40°41' W 074°08'0 0.0
2016-Mar-28 21:33N 40°41' W 074°08'0 0.0
2016-Mar-28 20:33N 40°41' W 074°08'0 0.0
2016-Mar-28 19:33N 40°41' W 074°08'0 0.0
2016-Mar-28 18:33N 40°41' W 074°08'0 0.0
2016-Mar-28 17:33N 40°41' W 074°08'0 0.0
2016-Mar-28 16:33N 40°41' W 074°08'0 0.0
2016-Mar-28 15:33N 40°41' W 074°08'0 0.0
2016-Mar-28 14:33N 40°41' W 074°08'0 0.0
2016-Mar-28 13:33N 40°41' W 074°08'0 0.0
2016-Mar-28 12:33N 40°41' W 074°08'0 0.0
2016-Mar-28 11:33N 40°41' W 074°08'2 2.1
2016-Mar-28 10:33N 40°39' W 074°09'6 5.5
2016-Mar-28 09:33N 40°36' W 074°03'1010.1
2016-Mar-28 08:33N 40°29' W 073°54'7 6.7
2016-Mar-28 07:33N 40°24' W 073°48'8 8.2
2016-Mar-28 06:32N 40°16' W 073°46'8 8.1
2016-Mar-28 05:32N 40°08' W 073°45'10 7.9
2016-Mar-28 04:15N 39°58' W 073°43'16 8.4
2016-Mar-28 02:23N 39°42' W 073°40'  
2016-Mar-24 10:09N 26°21' W 079°28'1119.1
2016-Mar-24 09:33N 26°09' W 079°30'1919.5
2016-Mar-24 08:33N 25°50' W 079°34'  

Dump ship's entire track history